sensor_id;sensor_type;location;lat;lon;timestamp;P1;durP1;ratioP1;P2;durP2;ratioP2
54679;SDS011;40578;53.178;5.846;2023-12-28T00:00:47;13.05;;;5.25;;
54679;SDS011;40578;53.178;5.846;2023-12-28T00:03:14;11.93;;;4.20;;
54679;SDS011;40578;53.178;5.846;2023-12-28T00:05:40;13.13;;;4.30;;
54679;SDS011;40578;53.178;5.846;2023-12-28T00:08:05;13.87;;;4.00;;
54679;SDS011;40578;53.178;5.846;2023-12-28T00:10:31;13.37;;;4.23;;
54679;SDS011;40578;53.178;5.846;2023-12-28T00:13:03;15.17;;;4.60;;
54679;SDS011;40578;53.178;5.846;2023-12-28T00:15:28;17.85;;;4.30;;
54679;SDS011;40578;53.178;5.846;2023-12-28T00:17:55;19.73;;;4.33;;
54679;SDS011;40578;53.178;5.846;2023-12-28T00:20:20;20.85;;;4.20;;
54679;SDS011;40578;53.178;5.846;2023-12-28T00:22:46;17.93;;;4.80;;
54679;SDS011;40578;53.178;5.846;2023-12-28T00:25:12;15.77;;;4.20;;
54679;SDS011;40578;53.178;5.846;2023-12-28T00:27:37;11.17;;;3.90;;
54679;SDS011;40578;53.178;5.846;2023-12-28T00:30:05;20.83;;;4.67;;
54679;SDS011;40578;53.178;5.846;2023-12-28T00:32:35;16.77;;;3.85;;
54679;SDS011;40578;53.178;5.846;2023-12-28T00:35:07;20.83;;;4.68;;
54679;SDS011;40578;53.178;5.846;2023-12-28T00:37:34;17.10;;;3.65;;
54679;SDS011;40578;53.178;5.846;2023-12-28T00:40:02;20.42;;;4.35;;
54679;SDS011;40578;53.178;5.846;2023-12-28T00:42:28;19.52;;;4.72;;
54679;SDS011;40578;53.178;5.846;2023-12-28T00:44:54;19.37;;;4.17;;
54679;SDS011;40578;53.178;5.846;2023-12-28T00:47:20;20.20;;;4.57;;
54679;SDS011;40578;53.178;5.846;2023-12-28T00:49:48;28.70;;;4.47;;
54679;SDS011;40578;53.178;5.846;2023-12-28T00:52:13;25.83;;;5.00;;
54679;SDS011;40578;53.178;5.846;2023-12-28T00:54:39;22.00;;;4.77;;
54679;SDS011;40578;53.178;5.846;2023-12-28T00:57:05;22.23;;;4.43;;
54679;SDS011;40578;53.178;5.846;2023-12-28T00:59:32;17.57;;;4.57;;
54679;SDS011;40578;53.178;5.846;2023-12-28T01:01:58;18.30;;;3.38;;
54679;SDS011;40578;53.178;5.846;2023-12-28T01:04:24;18.90;;;3.80;;
54679;SDS011;40578;53.178;5.846;2023-12-28T01:06:49;22.17;;;4.53;;
54679;SDS011;40578;53.178;5.846;2023-12-28T01:09:33;26.03;;;4.53;;
54679;SDS011;40578;53.178;5.846;2023-12-28T01:12:05;20.50;;;4.60;;
54679;SDS011;40578;53.178;5.846;2023-12-28T01:14:31;27.45;;;4.35;;
54679;SDS011;40578;53.178;5.846;2023-12-28T01:16:57;13.63;;;3.50;;
54679;SDS011;40578;53.178;5.846;2023-12-28T01:19:26;18.90;;;3.57;;
54679;SDS011;40578;53.178;5.846;2023-12-28T01:21:52;20.48;;;5.13;;
54679;SDS011;40578;53.178;5.846;2023-12-28T01:24:17;20.97;;;4.27;;
54679;SDS011;40578;53.178;5.846;2023-12-28T01:26:43;22.53;;;4.00;;
54679;SDS011;40578;53.178;5.846;2023-12-28T01:29:11;27.23;;;6.13;;
54679;SDS011;40578;53.178;5.846;2023-12-28T01:31:36;30.63;;;5.85;;
54679;SDS011;40578;53.178;5.846;2023-12-28T01:34:04;20.60;;;5.47;;
54679;SDS011;40578;53.178;5.846;2023-12-28T01:36:29;25.67;;;5.40;;
54679;SDS011;40578;53.178;5.846;2023-12-28T01:38:55;17.37;;;3.67;;
54679;SDS011;40578;53.178;5.846;2023-12-28T01:41:21;24.07;;;5.00;;
54679;SDS011;40578;53.178;5.846;2023-12-28T01:43:47;24.53;;;4.60;;
54679;SDS011;40578;53.178;5.846;2023-12-28T01:46:16;23.23;;;4.73;;
54679;SDS011;40578;53.178;5.846;2023-12-28T01:48:45;19.60;;;4.15;;
54679;SDS011;40578;53.178;5.846;2023-12-28T01:51:15;23.67;;;4.10;;
54679;SDS011;40578;53.178;5.846;2023-12-28T01:53:47;24.88;;;5.75;;
54679;SDS011;40578;53.178;5.846;2023-12-28T01:56:13;28.50;;;5.20;;
54679;SDS011;40578;53.178;5.846;2023-12-28T01:58:40;24.23;;;4.90;;
54679;SDS011;40578;53.178;5.846;2023-12-28T02:01:08;19.90;;;4.10;;
54679;SDS011;40578;53.178;5.846;2023-12-28T02:03:35;22.75;;;4.68;;
54679;SDS011;40578;53.178;5.846;2023-12-28T02:06:02;22.60;;;3.97;;
54679;SDS011;40578;53.178;5.846;2023-12-28T02:08:31;15.73;;;4.00;;
54679;SDS011;40578;53.178;5.846;2023-12-28T02:10:56;15.60;;;3.78;;
54679;SDS011;40578;53.178;5.846;2023-12-28T02:13:23;24.13;;;3.97;;
54679;SDS011;40578;53.178;5.846;2023-12-28T02:21:07;25.48;;;4.88;;
54679;SDS011;40578;53.178;5.846;2023-12-28T02:23:35;19.25;;;4.53;;
54679;SDS011;40578;53.178;5.846;2023-12-28T02:26:00;18.48;;;3.72;;
54679;SDS011;40578;53.178;5.846;2023-12-28T02:28:26;18.17;;;2.77;;
54679;SDS011;40578;53.178;5.846;2023-12-28T02:30:52;26.00;;;4.20;;
54679;SDS011;40578;53.178;5.846;2023-12-28T02:33:33;18.23;;;3.87;;
54679;SDS011;40578;53.178;5.846;2023-12-28T02:36:16;19.15;;;3.53;;
54679;SDS011;40578;53.178;5.846;2023-12-28T02:38:45;16.02;;;4.05;;
54679;SDS011;40578;53.178;5.846;2023-12-28T02:41:14;16.77;;;3.75;;
54679;SDS011;40578;53.178;5.846;2023-12-28T02:43:40;17.65;;;3.08;;
54679;SDS011;40578;53.178;5.846;2023-12-28T02:46:06;20.07;;;3.83;;
54679;SDS011;40578;53.178;5.846;2023-12-28T02:48:32;17.07;;;4.57;;
54679;SDS011;40578;53.178;5.846;2023-12-28T02:50:58;20.45;;;4.07;;
54679;SDS011;40578;53.178;5.846;2023-12-28T02:53:24;15.93;;;3.33;;
54679;SDS011;40578;53.178;5.846;2023-12-28T02:55:51;19.23;;;3.58;;
54679;SDS011;40578;53.178;5.846;2023-12-28T02:58:17;14.77;;;3.10;;
54679;SDS011;40578;53.178;5.846;2023-12-28T03:00:44;17.70;;;3.58;;
54679;SDS011;40578;53.178;5.846;2023-12-28T03:03:10;16.13;;;2.97;;
54679;SDS011;40578;53.178;5.846;2023-12-28T03:05:35;15.17;;;3.03;;
54679;SDS011;40578;53.178;5.846;2023-12-28T03:08:01;16.30;;;3.90;;
54679;SDS011;40578;53.178;5.846;2023-12-28T03:10:28;20.30;;;3.60;;
54679;SDS011;40578;53.178;5.846;2023-12-28T03:12:54;19.13;;;3.63;;
54679;SDS011;40578;53.178;5.846;2023-12-28T03:15:19;20.50;;;3.53;;
54679;SDS011;40578;53.178;5.846;2023-12-28T03:17:45;18.70;;;3.33;;
54679;SDS011;40578;53.178;5.846;2023-12-28T03:20:10;12.87;;;2.80;;
54679;SDS011;40578;53.178;5.846;2023-12-28T03:22:36;14.23;;;3.03;;
54679;SDS011;40578;53.178;5.846;2023-12-28T03:25:02;18.30;;;3.43;;
54679;SDS011;40578;53.178;5.846;2023-12-28T03:27:28;17.13;;;3.83;;
54679;SDS011;40578;53.178;5.846;2023-12-28T03:29:55;14.77;;;3.20;;
54679;SDS011;40578;53.178;5.846;2023-12-28T03:32:20;12.43;;;2.38;;
54679;SDS011;40578;53.178;5.846;2023-12-28T03:34:46;12.17;;;2.90;;
54679;SDS011;40578;53.178;5.846;2023-12-28T03:37:11;15.17;;;3.43;;
54679;SDS011;40578;53.178;5.846;2023-12-28T03:39:37;15.83;;;3.37;;
54679;SDS011;40578;53.178;5.846;2023-12-28T03:42:03;18.33;;;2.67;;
54679;SDS011;40578;53.178;5.846;2023-12-28T03:44:30;14.87;;;3.03;;
54679;SDS011;40578;53.178;5.846;2023-12-28T03:46:55;14.35;;;3.17;;
54679;SDS011;40578;53.178;5.846;2023-12-28T03:49:21;13.30;;;2.90;;
54679;SDS011;40578;53.178;5.846;2023-12-28T03:51:48;16.60;;;3.10;;
54679;SDS011;40578;53.178;5.846;2023-12-28T03:54:18;17.38;;;3.25;;
54679;SDS011;40578;53.178;5.846;2023-12-28T03:56:45;14.23;;;3.05;;
54679;SDS011;40578;53.178;5.846;2023-12-28T03:59:16;10.35;;;2.40;;
54679;SDS011;40578;53.178;5.846;2023-12-28T04:01:42;11.52;;;2.92;;
54679;SDS011;40578;53.178;5.846;2023-12-28T04:04:09;15.50;;;2.58;;
54679;SDS011;40578;53.178;5.846;2023-12-28T04:06:35;15.30;;;3.72;;
54679;SDS011;40578;53.178;5.846;2023-12-28T04:09:01;14.05;;;3.15;;
54679;SDS011;40578;53.178;5.846;2023-12-28T04:11:27;11.50;;;3.73;;
54679;SDS011;40578;53.178;5.846;2023-12-28T04:13:53;21.95;;;3.55;;
54679;SDS011;40578;53.178;5.846;2023-12-28T04:16:20;16.55;;;2.85;;
54679;SDS011;40578;53.178;5.846;2023-12-28T04:18:45;17.70;;;3.67;;
54679;SDS011;40578;53.178;5.846;2023-12-28T04:21:11;19.27;;;3.93;;
54679;SDS011;40578;53.178;5.846;2023-12-28T04:23:38;13.77;;;3.83;;
54679;SDS011;40578;53.178;5.846;2023-12-28T04:26:04;20.05;;;4.30;;
54679;SDS011;40578;53.178;5.846;2023-12-28T04:28:29;19.10;;;3.17;;
54679;SDS011;40578;53.178;5.846;2023-12-28T04:30:55;16.83;;;3.67;;
54679;SDS011;40578;53.178;5.846;2023-12-28T04:33:21;20.65;;;4.05;;
54679;SDS011;40578;53.178;5.846;2023-12-28T04:35:47;17.03;;;4.03;;
54679;SDS011;40578;53.178;5.846;2023-12-28T04:38:13;23.87;;;3.57;;
54679;SDS011;40578;53.178;5.846;2023-12-28T04:40:38;19.07;;;3.33;;
54679;SDS011;40578;53.178;5.846;2023-12-28T04:43:04;17.57;;;3.50;;
54679;SDS011;40578;53.178;5.846;2023-12-28T04:45:30;17.47;;;3.10;;
54679;SDS011;40578;53.178;5.846;2023-12-28T04:47:55;21.73;;;3.90;;
54679;SDS011;40578;53.178;5.846;2023-12-28T04:50:21;21.90;;;3.27;;
54679;SDS011;40578;53.178;5.846;2023-12-28T04:52:48;17.10;;;3.47;;
54679;SDS011;40578;53.178;5.846;2023-12-28T04:55:13;22.88;;;3.13;;
54679;SDS011;40578;53.178;5.846;2023-12-28T04:57:40;17.50;;;3.20;;
54679;SDS011;40578;53.178;5.846;2023-12-28T05:00:06;23.27;;;5.55;;
54679;SDS011;40578;53.178;5.846;2023-12-28T05:02:33;14.00;;;3.38;;
54679;SDS011;40578;53.178;5.846;2023-12-28T05:04:59;18.50;;;4.67;;
54679;SDS011;40578;53.178;5.846;2023-12-28T05:07:26;17.00;;;3.90;;
54679;SDS011;40578;53.178;5.846;2023-12-28T05:09:51;15.23;;;3.85;;
54679;SDS011;40578;53.178;5.846;2023-12-28T05:12:17;19.73;;;3.57;;
54679;SDS011;40578;53.178;5.846;2023-12-28T05:14:45;21.57;;;4.07;;
54679;SDS011;40578;53.178;5.846;2023-12-28T05:17:10;23.10;;;3.55;;
54679;SDS011;40578;53.178;5.846;2023-12-28T05:19:36;17.30;;;3.57;;
54679;SDS011;40578;53.178;5.846;2023-12-28T05:22:02;26.80;;;4.43;;
54679;SDS011;40578;53.178;5.846;2023-12-28T05:24:29;18.70;;;4.72;;
54679;SDS011;40578;53.178;5.846;2023-12-28T05:26:55;24.90;;;4.80;;
54679;SDS011;40578;53.178;5.846;2023-12-28T05:29:20;23.20;;;3.97;;
54679;SDS011;40578;53.178;5.846;2023-12-28T05:31:46;24.40;;;4.03;;
54679;SDS011;40578;53.178;5.846;2023-12-28T05:34:11;33.07;;;5.10;;
54679;SDS011;40578;53.178;5.846;2023-12-28T05:36:37;24.47;;;4.87;;
54679;SDS011;40578;53.178;5.846;2023-12-28T05:39:02;23.03;;;4.20;;
54679;SDS011;40578;53.178;5.846;2023-12-28T05:41:35;25.77;;;4.60;;
54679;SDS011;40578;53.178;5.846;2023-12-28T05:44:00;22.67;;;3.88;;
54679;SDS011;40578;53.178;5.846;2023-12-28T05:46:26;23.77;;;4.87;;
54679;SDS011;40578;53.178;5.846;2023-12-28T05:48:51;21.57;;;3.30;;
54679;SDS011;40578;53.178;5.846;2023-12-28T05:51:17;22.53;;;5.20;;
54679;SDS011;40578;53.178;5.846;2023-12-28T05:53:43;23.13;;;4.07;;
54679;SDS011;40578;53.178;5.846;2023-12-28T05:56:09;19.45;;;4.63;;
54679;SDS011;40578;53.178;5.846;2023-12-28T05:58:35;20.03;;;3.50;;
54679;SDS011;40578;53.178;5.846;2023-12-28T06:01:01;26.05;;;5.07;;
54679;SDS011;40578;53.178;5.846;2023-12-28T06:03:30;29.63;;;4.63;;
54679;SDS011;40578;53.178;5.846;2023-12-28T06:05:58;24.75;;;5.10;;
54679;SDS011;40578;53.178;5.846;2023-12-28T06:08:25;17.50;;;4.53;;
54679;SDS011;40578;53.178;5.846;2023-12-28T06:10:50;18.33;;;3.87;;
54679;SDS011;40578;53.178;5.846;2023-12-28T06:13:16;14.00;;;3.43;;
54679;SDS011;40578;53.178;5.846;2023-12-28T06:15:42;20.90;;;3.90;;
54679;SDS011;40578;53.178;5.846;2023-12-28T06:18:08;21.40;;;5.18;;
54679;SDS011;40578;53.178;5.846;2023-12-28T06:20:35;23.90;;;4.50;;
54679;SDS011;40578;53.178;5.846;2023-12-28T06:23:02;27.65;;;4.53;;
54679;SDS011;40578;53.178;5.846;2023-12-28T06:27:54;23.10;;;5.38;;
54679;SDS011;40578;53.178;5.846;2023-12-28T06:30:19;28.23;;;4.53;;
54679;SDS011;40578;53.178;5.846;2023-12-28T06:32:45;22.37;;;4.80;;
54679;SDS011;40578;53.178;5.846;2023-12-28T06:35:11;26.53;;;5.53;;
54679;SDS011;40578;53.178;5.846;2023-12-28T06:37:36;19.50;;;4.67;;
54679;SDS011;40578;53.178;5.846;2023-12-28T06:40:02;23.87;;;4.30;;
54679;SDS011;40578;53.178;5.846;2023-12-28T06:42:28;21.20;;;3.63;;
54679;SDS011;40578;53.178;5.846;2023-12-28T06:44:54;24.10;;;5.17;;
54679;SDS011;40578;53.178;5.846;2023-12-28T06:47:19;29.80;;;5.63;;
54679;SDS011;40578;53.178;5.846;2023-12-28T06:49:45;28.03;;;5.43;;
54679;SDS011;40578;53.178;5.846;2023-12-28T06:52:11;22.07;;;4.33;;
54679;SDS011;40578;53.178;5.846;2023-12-28T06:54:36;24.27;;;6.60;;
54679;SDS011;40578;53.178;5.846;2023-12-28T06:57:03;28.40;;;5.00;;
54679;SDS011;40578;53.178;5.846;2023-12-28T06:59:29;25.48;;;4.63;;
54679;SDS011;40578;53.178;5.846;2023-12-28T07:01:54;25.80;;;5.03;;
54679;SDS011;40578;53.178;5.846;2023-12-28T07:04:20;24.53;;;5.07;;
54679;SDS011;40578;53.178;5.846;2023-12-28T07:06:46;24.17;;;5.10;;
54679;SDS011;40578;53.178;5.846;2023-12-28T07:09:11;27.80;;;6.20;;
54679;SDS011;40578;53.178;5.846;2023-12-28T07:11:38;25.53;;;5.13;;
54679;SDS011;40578;53.178;5.846;2023-12-28T07:14:04;22.38;;;4.70;;
54679;SDS011;40578;53.178;5.846;2023-12-28T07:16:29;28.73;;;5.13;;
54679;SDS011;40578;53.178;5.846;2023-12-28T07:18:55;26.33;;;6.30;;
54679;SDS011;40578;53.178;5.846;2023-12-28T07:21:20;30.23;;;5.57;;
54679;SDS011;40578;53.178;5.846;2023-12-28T07:23:46;20.90;;;5.30;;
54679;SDS011;40578;53.178;5.846;2023-12-28T07:26:14;23.02;;;5.93;;
54679;SDS011;40578;53.178;5.846;2023-12-28T07:28:40;28.58;;;5.43;;
54679;SDS011;40578;53.178;5.846;2023-12-28T07:31:08;27.80;;;6.53;;
54679;SDS011;40578;53.178;5.846;2023-12-28T07:33:34;30.80;;;7.77;;
54679;SDS011;40578;53.178;5.846;2023-12-28T07:35:59;30.13;;;5.57;;
54679;SDS011;40578;53.178;5.846;2023-12-28T07:38:27;32.20;;;7.40;;
54679;SDS011;40578;53.178;5.846;2023-12-28T07:40:53;25.57;;;6.37;;
54679;SDS011;40578;53.178;5.846;2023-12-28T07:43:19;27.97;;;5.77;;
54679;SDS011;40578;53.178;5.846;2023-12-28T07:45:44;28.37;;;5.23;;
54679;SDS011;40578;53.178;5.846;2023-12-28T07:48:10;30.40;;;5.40;;
54679;SDS011;40578;53.178;5.846;2023-12-28T07:50:36;35.00;;;6.53;;
54679;SDS011;40578;53.178;5.846;2023-12-28T07:53:01;35.33;;;7.23;;
54679;SDS011;40578;53.178;5.846;2023-12-28T07:55:27;35.58;;;5.88;;
54679;SDS011;40578;53.178;5.846;2023-12-28T07:57:53;28.47;;;6.80;;
54679;SDS011;40578;53.178;5.846;2023-12-28T08:00:19;25.73;;;5.80;;
54679;SDS011;40578;53.178;5.846;2023-12-28T08:02:45;37.43;;;7.93;;
54679;SDS011;40578;53.178;5.846;2023-12-28T08:05:11;29.00;;;5.60;;
54679;SDS011;40578;53.178;5.846;2023-12-28T08:07:36;31.58;;;6.43;;
54679;SDS011;40578;53.178;5.846;2023-12-28T08:10:02;28.37;;;5.90;;
54679;SDS011;40578;53.178;5.846;2023-12-28T08:12:28;33.28;;;7.05;;
54679;SDS011;40578;53.178;5.846;2023-12-28T08:14:54;36.47;;;6.40;;
54679;SDS011;40578;53.178;5.846;2023-12-28T08:17:20;30.60;;;7.50;;
54679;SDS011;40578;53.178;5.846;2023-12-28T08:19:46;34.73;;;6.20;;
54679;SDS011;40578;53.178;5.846;2023-12-28T08:22:11;31.00;;;7.27;;
54679;SDS011;40578;53.178;5.846;2023-12-28T08:24:37;25.87;;;6.13;;
54679;SDS011;40578;53.178;5.846;2023-12-28T08:27:03;29.93;;;6.13;;
54679;SDS011;40578;53.178;5.846;2023-12-28T08:29:28;32.27;;;7.47;;
54679;SDS011;40578;53.178;5.846;2023-12-28T08:31:54;30.87;;;6.80;;
54679;SDS011;40578;53.178;5.846;2023-12-28T08:34:21;28.90;;;6.20;;
54679;SDS011;40578;53.178;5.846;2023-12-28T08:36:47;32.50;;;7.85;;
54679;SDS011;40578;53.178;5.846;2023-12-28T08:39:12;34.83;;;7.27;;
54679;SDS011;40578;53.178;5.846;2023-12-28T08:41:38;27.70;;;6.70;;
54679;SDS011;40578;53.178;5.846;2023-12-28T08:44:04;42.83;;;7.07;;
54679;SDS011;40578;53.178;5.846;2023-12-28T08:46:30;32.87;;;6.20;;
54679;SDS011;40578;53.178;5.846;2023-12-28T08:48:56;37.83;;;7.60;;
54679;SDS011;40578;53.178;5.846;2023-12-28T08:51:21;34.80;;;6.37;;
54679;SDS011;40578;53.178;5.846;2023-12-28T08:53:47;26.50;;;6.37;;
54679;SDS011;40578;53.178;5.846;2023-12-28T08:58:45;31.58;;;6.88;;
54679;SDS011;40578;53.178;5.846;2023-12-28T09:01:17;31.70;;;6.05;;
54679;SDS011;40578;53.178;5.846;2023-12-28T09:03:43;31.30;;;6.60;;
54679;SDS011;40578;53.178;5.846;2023-12-28T09:06:10;24.25;;;4.78;;
54679;SDS011;40578;53.178;5.846;2023-12-28T09:08:35;31.17;;;7.23;;
54679;SDS011;40578;53.178;5.846;2023-12-28T09:11:02;30.33;;;6.80;;
54679;SDS011;40578;53.178;5.846;2023-12-28T09:13:28;28.55;;;5.15;;
54679;SDS011;40578;53.178;5.846;2023-12-28T09:15:53;25.40;;;5.73;;
54679;SDS011;40578;53.178;5.846;2023-12-28T09:18:19;34.10;;;7.80;;
54679;SDS011;40578;53.178;5.846;2023-12-28T09:20:45;30.90;;;6.47;;
54679;SDS011;40578;53.178;5.846;2023-12-28T09:23:10;25.60;;;5.13;;
54679;SDS011;40578;53.178;5.846;2023-12-28T09:25:36;25.30;;;5.77;;
54679;SDS011;40578;53.178;5.846;2023-12-28T09:28:04;35.75;;;6.97;;
54679;SDS011;40578;53.178;5.846;2023-12-28T09:32:56;31.73;;;6.35;;
54679;SDS011;40578;53.178;5.846;2023-12-28T09:35:21;25.40;;;4.37;;
54679;SDS011;40578;53.178;5.846;2023-12-28T09:37:47;23.23;;;4.23;;
54679;SDS011;40578;53.178;5.846;2023-12-28T09:40:13;31.05;;;6.95;;
54679;SDS011;40578;53.178;5.846;2023-12-28T09:42:43;45.17;;;7.03;;
54679;SDS011;40578;53.178;5.846;2023-12-28T09:45:16;25.23;;;4.93;;
54679;SDS011;40578;53.178;5.846;2023-12-28T09:47:42;27.73;;;5.82;;
54679;SDS011;40578;53.178;5.846;2023-12-28T09:50:09;26.05;;;5.57;;
54679;SDS011;40578;53.178;5.846;2023-12-28T09:52:35;29.85;;;6.57;;
54679;SDS011;40578;53.178;5.846;2023-12-28T09:55:01;36.20;;;6.40;;
54679;SDS011;40578;53.178;5.846;2023-12-28T09:57:27;23.17;;;5.65;;
54679;SDS011;40578;53.178;5.846;2023-12-28T09:59:53;29.58;;;6.20;;
54679;SDS011;40578;53.178;5.846;2023-12-28T10:02:19;29.30;;;6.55;;
54679;SDS011;40578;53.178;5.846;2023-12-28T10:04:45;27.00;;;6.00;;
54679;SDS011;40578;53.178;5.846;2023-12-28T10:07:11;29.97;;;6.30;;
54679;SDS011;40578;53.178;5.846;2023-12-28T10:09:36;25.90;;;4.90;;
54679;SDS011;40578;53.178;5.846;2023-12-28T10:12:02;29.77;;;5.80;;
54679;SDS011;40578;53.178;5.846;2023-12-28T10:14:28;24.13;;;5.67;;
54679;SDS011;40578;53.178;5.846;2023-12-28T10:16:54;31.27;;;6.93;;
54679;SDS011;40578;53.178;5.846;2023-12-28T10:19:24;21.17;;;4.77;;
54679;SDS011;40578;53.178;5.846;2023-12-28T10:21:49;28.92;;;6.25;;
54679;SDS011;40578;53.178;5.846;2023-12-28T10:24:15;37.03;;;6.03;;
54679;SDS011;40578;53.178;5.846;2023-12-28T10:26:41;31.20;;;5.93;;
54679;SDS011;40578;53.178;5.846;2023-12-28T10:29:07;26.50;;;5.85;;
54679;SDS011;40578;53.178;5.846;2023-12-28T10:31:33;26.33;;;5.97;;
54679;SDS011;40578;53.178;5.846;2023-12-28T10:33:59;23.77;;;4.85;;
54679;SDS011;40578;53.178;5.846;2023-12-28T10:36:28;24.35;;;4.85;;
54679;SDS011;40578;53.178;5.846;2023-12-28T10:38:54;25.60;;;5.30;;
54679;SDS011;40578;53.178;5.846;2023-12-28T10:41:21;23.80;;;4.88;;
54679;SDS011;40578;53.178;5.846;2023-12-28T10:46:44;20.65;;;4.55;;
54679;SDS011;40578;53.178;5.846;2023-12-28T10:49:13;26.75;;;5.57;;
54679;SDS011;40578;53.178;5.846;2023-12-28T10:51:42;29.75;;;5.45;;
54679;SDS011;40578;53.178;5.846;2023-12-28T10:57:09;30.52;;;6.80;;
54679;SDS011;40578;53.178;5.846;2023-12-28T11:02:47;26.92;;;7.18;;
54679;SDS011;40578;53.178;5.846;2023-12-28T11:05:21;32.60;;;5.28;;
54679;SDS011;40578;53.178;5.846;2023-12-28T11:07:49;24.50;;;5.10;;
54679;SDS011;40578;53.178;5.846;2023-12-28T11:10:22;25.60;;;5.80;;
54679;SDS011;40578;53.178;5.846;2023-12-28T11:12:51;24.08;;;6.90;;
54679;SDS011;40578;53.178;5.846;2023-12-28T11:15:18;24.42;;;5.10;;
54679;SDS011;40578;53.178;5.846;2023-12-28T11:17:44;24.98;;;5.05;;
54679;SDS011;40578;53.178;5.846;2023-12-28T11:20:10;28.80;;;5.27;;
54679;SDS011;40578;53.178;5.846;2023-12-28T11:22:36;28.42;;;6.75;;
54679;SDS011;40578;53.178;5.846;2023-12-28T11:25:03;26.38;;;5.68;;
54679;SDS011;40578;53.178;5.846;2023-12-28T11:27:36;27.10;;;5.78;;
54679;SDS011;40578;53.178;5.846;2023-12-28T11:30:03;27.08;;;5.72;;
54679;SDS011;40578;53.178;5.846;2023-12-28T11:32:33;30.10;;;5.00;;
54679;SDS011;40578;53.178;5.846;2023-12-28T11:35:00;27.00;;;6.22;;
54679;SDS011;40578;53.178;5.846;2023-12-28T11:37:26;33.67;;;6.60;;
54679;SDS011;40578;53.178;5.846;2023-12-28T11:39:54;29.02;;;5.95;;
54679;SDS011;40578;53.178;5.846;2023-12-28T11:42:22;36.42;;;5.75;;
54679;SDS011;40578;53.178;5.846;2023-12-28T11:44:52;25.77;;;5.25;;
54679;SDS011;40578;53.178;5.846;2023-12-28T11:47:21;28.20;;;5.47;;
54679;SDS011;40578;53.178;5.846;2023-12-28T11:49:52;25.38;;;5.40;;
54679;SDS011;40578;53.178;5.846;2023-12-28T11:52:30;27.10;;;5.95;;
54679;SDS011;40578;53.178;5.846;2023-12-28T11:54:56;28.92;;;6.28;;
54679;SDS011;40578;53.178;5.846;2023-12-28T11:57:22;32.22;;;6.95;;
54679;SDS011;40578;53.178;5.846;2023-12-28T11:59:52;26.42;;;4.55;;
54679;SDS011;40578;53.178;5.846;2023-12-28T12:02:20;24.65;;;5.25;;
54679;SDS011;40578;53.178;5.846;2023-12-28T12:04:46;27.60;;;6.47;;
54679;SDS011;40578;53.178;5.846;2023-12-28T12:07:11;30.63;;;5.43;;
54679;SDS011;40578;53.178;5.846;2023-12-28T12:09:37;27.60;;;5.80;;
54679;SDS011;40578;53.178;5.846;2023-12-28T12:12:03;32.20;;;5.17;;
54679;SDS011;40578;53.178;5.846;2023-12-28T12:14:29;28.33;;;6.18;;
54679;SDS011;40578;53.178;5.846;2023-12-28T12:16:56;27.13;;;6.53;;
54679;SDS011;40578;53.178;5.846;2023-12-28T12:19:25;29.73;;;5.57;;
54679;SDS011;40578;53.178;5.846;2023-12-28T12:21:51;27.65;;;6.40;;
54679;SDS011;40578;53.178;5.846;2023-12-28T12:24:18;33.00;;;6.25;;
54679;SDS011;40578;53.178;5.846;2023-12-28T12:26:45;33.78;;;5.93;;
54679;SDS011;40578;53.178;5.846;2023-12-28T12:29:11;33.45;;;5.50;;
54679;SDS011;40578;53.178;5.846;2023-12-28T12:31:37;32.70;;;6.53;;
54679;SDS011;40578;53.178;5.846;2023-12-28T12:34:06;20.30;;;4.63;;
54679;SDS011;40578;53.178;5.846;2023-12-28T12:36:40;29.60;;;6.03;;
54679;SDS011;40578;53.178;5.846;2023-12-28T12:39:06;31.33;;;7.07;;
54679;SDS011;40578;53.178;5.846;2023-12-28T12:43:59;23.58;;;5.22;;
54679;SDS011;40578;53.178;5.846;2023-12-28T12:46:25;22.20;;;4.47;;
54679;SDS011;40578;53.178;5.846;2023-12-28T12:48:55;28.90;;;5.20;;
54679;SDS011;40578;53.178;5.846;2023-12-28T12:51:22;25.27;;;6.35;;
54679;SDS011;40578;53.178;5.846;2023-12-28T12:53:48;22.87;;;4.63;;
54679;SDS011;40578;53.178;5.846;2023-12-28T12:56:13;23.10;;;4.80;;
54679;SDS011;40578;53.178;5.846;2023-12-28T12:58:39;23.97;;;6.17;;
54679;SDS011;40578;53.178;5.846;2023-12-28T13:01:05;28.07;;;5.00;;
54679;SDS011;40578;53.178;5.846;2023-12-28T13:03:35;25.27;;;4.97;;
54679;SDS011;40578;53.178;5.846;2023-12-28T13:06:01;24.38;;;5.25;;
54679;SDS011;40578;53.178;5.846;2023-12-28T13:08:29;26.63;;;5.05;;
54679;SDS011;40578;53.178;5.846;2023-12-28T13:10:54;25.13;;;5.93;;
54679;SDS011;40578;53.178;5.846;2023-12-28T13:13:20;29.83;;;6.60;;
54679;SDS011;40578;53.178;5.846;2023-12-28T13:15:45;22.50;;;4.67;;
54679;SDS011;40578;53.178;5.846;2023-12-28T13:18:11;24.00;;;5.67;;
54679;SDS011;40578;53.178;5.846;2023-12-28T13:20:37;25.03;;;5.73;;
54679;SDS011;40578;53.178;5.846;2023-12-28T13:23:03;26.80;;;4.87;;
54679;SDS011;40578;53.178;5.846;2023-12-28T13:25:29;25.60;;;5.37;;
54679;SDS011;40578;53.178;5.846;2023-12-28T13:27:54;32.70;;;5.97;;
54679;SDS011;40578;53.178;5.846;2023-12-28T13:30:20;32.40;;;5.43;;
54679;SDS011;40578;53.178;5.846;2023-12-28T13:32:46;32.15;;;5.25;;
54679;SDS011;40578;53.178;5.846;2023-12-28T13:35:13;24.55;;;4.80;;
54679;SDS011;40578;53.178;5.846;2023-12-28T13:37:39;25.57;;;5.57;;
54679;SDS011;40578;53.178;5.846;2023-12-28T13:40:05;23.63;;;5.73;;
54679;SDS011;40578;53.178;5.846;2023-12-28T13:42:31;30.05;;;5.88;;
54679;SDS011;40578;53.178;5.846;2023-12-28T13:44:57;24.80;;;4.73;;
54679;SDS011;40578;53.178;5.846;2023-12-28T13:47:23;27.73;;;5.93;;
54679;SDS011;40578;53.178;5.846;2023-12-28T13:49:48;21.77;;;5.60;;
54679;SDS011;40578;53.178;5.846;2023-12-28T13:52:14;27.07;;;5.10;;
54679;SDS011;40578;53.178;5.846;2023-12-28T13:54:40;24.87;;;5.43;;
54679;SDS011;40578;53.178;5.846;2023-12-28T13:57:06;25.55;;;5.78;;
54679;SDS011;40578;53.178;5.846;2023-12-28T13:59:32;25.43;;;4.87;;
54679;SDS011;40578;53.178;5.846;2023-12-28T14:01:58;26.47;;;5.40;;
54679;SDS011;40578;53.178;5.846;2023-12-28T14:04:24;21.77;;;4.60;;
54679;SDS011;40578;53.178;5.846;2023-12-28T14:06:50;30.23;;;4.87;;
54679;SDS011;40578;53.178;5.846;2023-12-28T14:09:15;25.67;;;5.07;;
54679;SDS011;40578;53.178;5.846;2023-12-28T14:11:45;24.85;;;4.70;;
54679;SDS011;40578;53.178;5.846;2023-12-28T14:14:14;22.95;;;5.63;;
54679;SDS011;40578;53.178;5.846;2023-12-28T14:16:39;19.90;;;5.27;;
54679;SDS011;40578;53.178;5.846;2023-12-28T14:19:06;26.35;;;5.22;;
54679;SDS011;40578;53.178;5.846;2023-12-28T14:21:35;27.73;;;5.27;;
54679;SDS011;40578;53.178;5.846;2023-12-28T14:24:02;21.83;;;5.65;;
54679;SDS011;40578;53.178;5.846;2023-12-28T14:26:27;16.30;;;4.10;;
54679;SDS011;40578;53.178;5.846;2023-12-28T14:28:55;20.95;;;3.72;;
54679;SDS011;40578;53.178;5.846;2023-12-28T14:31:21;20.23;;;4.20;;
54679;SDS011;40578;53.178;5.846;2023-12-28T14:33:47;23.57;;;5.17;;
54679;SDS011;40578;53.178;5.846;2023-12-28T14:36:20;18.02;;;4.15;;
54679;SDS011;40578;53.178;5.846;2023-12-28T14:38:59;21.98;;;5.35;;
54679;SDS011;40578;53.178;5.846;2023-12-28T14:41:25;21.63;;;4.43;;
54679;SDS011;40578;53.178;5.846;2023-12-28T14:43:51;24.30;;;4.93;;
54679;SDS011;40578;53.178;5.846;2023-12-28T14:48:43;26.42;;;5.47;;
54679;SDS011;40578;53.178;5.846;2023-12-28T14:51:09;26.13;;;6.07;;
54679;SDS011;40578;53.178;5.846;2023-12-28T14:53:34;21.50;;;4.77;;
54679;SDS011;40578;53.178;5.846;2023-12-28T14:56:00;16.30;;;3.97;;